createdAt,value
2018-11-02T00:01:06.784Z,95.93
2018-11-02T00:03:35.728Z,96.03
2018-11-02T00:06:04.647Z,95.96
2018-11-02T00:08:33.272Z,95.89
2018-11-02T00:11:02.036Z,95.70
2018-11-02T00:13:31.684Z,95.19
2018-11-02T00:16:01.055Z,95.39
2018-11-02T00:18:30.109Z,95.09
2018-11-02T00:20:59.314Z,95.83
2018-11-02T00:23:28.570Z,95.71
2018-11-02T00:25:58.305Z,95.68
2018-11-02T00:28:27.138Z,95.93
2018-11-02T00:30:56.289Z,95.48
2018-11-02T00:33:25.345Z,95.67
2018-11-02T00:35:54.266Z,95.33
2018-11-02T00:38:24.392Z,95.04
2018-11-02T00:40:53.134Z,95.25
2018-11-02T00:43:22.126Z,95.46
2018-11-02T00:45:51.161Z,95.29
2018-11-02T00:48:20.753Z,95.35
2018-11-02T00:50:49.518Z,95.62
2018-11-02T00:53:18.159Z,95.79
2018-11-02T00:55:47.039Z,95.85
2018-11-02T00:58:16.652Z,95.69
2018-11-02T01:00:45.409Z,96.09
2018-11-02T01:03:14.219Z,96.04
2018-11-02T01:05:43.461Z,96.48
2018-11-02T01:08:13.603Z,96.42
2018-11-02T01:10:42.769Z,96.35
2018-11-02T01:13:11.629Z,96.08
2018-11-02T01:15:41.269Z,95.92
2018-11-02T01:18:10.423Z,96.42
2018-11-02T01:20:40.770Z,96.63
2018-11-02T01:23:10.893Z,96.16
2018-11-02T01:25:40.061Z,96.34
2018-11-02T01:28:10.232Z,95.83
2018-11-02T01:30:39.609Z,95.75
2018-11-02T01:33:08.338Z,97.00
2018-11-02T01:35:38.003Z,96.76
2018-11-02T01:38:07.255Z,96.76
2018-11-02T01:40:36.440Z,96.70
2018-11-02T01:43:05.827Z,96.46
2018-11-02T01:45:34.748Z,96.30
2018-11-02T01:48:03.956Z,96.90
2018-11-02T01:50:33.587Z,96.59
2018-11-02T01:53:02.628Z,96.75
2018-11-02T01:55:31.195Z,96.74
2018-11-02T01:58:00.016Z,96.75
2018-11-02T02:00:29.377Z,96.10
2018-11-02T02:02:59.024Z,95.96
2018-11-02T02:05:28.524Z,96.18
2018-11-02T02:07:57.856Z,96.23
2018-11-02T02:10:26.660Z,96.74
2018-11-02T02:12:55.391Z,96.20
2018-11-02T02:15:24.713Z,96.40
2018-11-02T02:17:53.629Z,96.28
2018-11-02T02:20:22.494Z,96.18
2018-11-02T02:22:52.185Z,96.04
2018-11-02T02:25:21.018Z,96.04
2018-11-02T02:27:50.543Z,95.81
2018-11-02T02:30:20.914Z,96.52
2018-11-02T02:32:49.989Z,96.72
2018-11-02T02:35:19.188Z,96.47
2018-11-02T02:37:50.479Z,96.66
2018-11-02T02:40:19.646Z,96.21
2018-11-02T02:42:48.454Z,95.57
2018-11-02T02:45:18.020Z,96.25
2018-11-02T02:47:47.289Z,96.26
2018-11-02T02:50:16.200Z,96.44
2018-11-02T02:52:45.763Z,96.57
2018-11-02T02:55:14.620Z,96.51
2018-11-02T02:57:43.301Z,96.60
2018-11-02T03:00:14.825Z,96.89
2018-11-02T03:02:43.851Z,97.11
2018-11-02T03:05:12.783Z,96.65
2018-11-02T03:07:42.117Z,96.77
2018-11-02T03:10:10.945Z,97.16
2018-11-02T03:12:40.433Z,96.70
2018-11-02T03:15:09.565Z,96.87
2018-11-02T03:17:38.959Z,96.87
2018-11-02T03:20:11.415Z,97.00
2018-11-02T03:22:40.567Z,96.32
2018-11-02T03:25:10.343Z,96.09
2018-11-02T03:27:39.309Z,96.58
2018-11-02T03:30:09.509Z,96.55
2018-11-02T03:32:38.359Z,96.39
2018-11-02T03:35:07.378Z,96.95
2018-11-02T03:37:36.742Z,96.98
2018-11-02T03:40:07.045Z,97.05
2018-11-02T03:42:37.034Z,96.89
2018-11-02T03:45:06.619Z,97.14
2018-11-02T03:47:35.414Z,96.85
2018-11-02T03:50:04.627Z,96.83
2018-11-02T03:52:34.044Z,96.69
2018-11-02T03:55:03.482Z,96.81
2018-11-02T03:57:32.390Z,97.08
2018-11-02T04:00:01.797Z,96.83
2018-11-02T04:02:30.869Z,96.83
2018-11-02T04:05:00.100Z,96.20
2018-11-02T04:07:29.054Z,96.21
2018-11-02T04:09:58.469Z,96.22
2018-11-02T04:12:27.619Z,96.51
2018-11-02T04:14:56.509Z,96.72
2018-11-02T04:17:25.350Z,96.59
2018-11-02T04:19:54.208Z,96.51
2018-11-02T04:22:22.831Z,96.72
2018-11-02T04:24:51.753Z,96.91
2018-11-02T04:27:20.394Z,96.65
2018-11-02T04:29:49.225Z,96.40
2018-11-02T04:32:19.175Z,97.03
2018-11-02T04:35:00.067Z,96.88
2018-11-02T04:37:28.785Z,96.72
2018-11-02T04:39:57.909Z,96.73
2018-11-02T04:42:27.236Z,96.61
2018-11-02T04:44:56.425Z,96.67
2018-11-02T04:47:25.631Z,96.57
2018-11-02T04:49:55.089Z,97.36
2018-11-02T04:52:23.919Z,97.26
2018-11-02T04:54:53.307Z,97.45
2018-11-02T04:57:22.900Z,98.15
2018-11-02T04:59:51.708Z,98.01
2018-11-02T05:02:20.827Z,98.27
2018-11-02T05:04:50.225Z,98.59
2018-11-02T05:07:19.095Z,98.52
2018-11-02T05:09:48.636Z,98.47
2018-11-02T05:12:17.699Z,98.50
2018-11-02T05:14:46.660Z,98.57
2018-11-02T05:17:16.852Z,99.11
2018-11-02T05:19:45.594Z,98.79
2018-11-02T05:22:14.569Z,99.00
2018-11-02T05:24:44.017Z,99.20
2018-11-02T05:27:13.957Z,99.57
2018-11-02T05:29:42.644Z,99.46
2018-11-02T05:32:12.806Z,98.88
2018-11-02T05:34:41.729Z,99.48
2018-11-02T05:37:10.374Z,99.43
2018-11-02T05:39:39.226Z,99.46
2018-11-02T05:42:08.416Z,98.93
2018-11-02T05:44:37.514Z,99.05
2018-11-02T05:47:06.825Z,99.64
2018-11-02T05:49:35.806Z,99.00
2018-11-02T05:52:04.689Z,99.17
2018-11-02T05:54:33.561Z,98.96
2018-11-02T05:57:03.196Z,99.17
2018-11-02T05:59:33.014Z,99.20
2018-11-02T06:02:02.694Z,99.09
2018-11-02T06:04:31.456Z,99.55
2018-11-02T06:07:00.543Z,99.35
2018-11-02T06:09:30.817Z,99.16
2018-11-02T06:12:00.339Z,99.46
2018-11-02T06:14:29.356Z,99.48
2018-11-02T06:16:58.184Z,99.40
2018-11-02T06:19:27.462Z,100.00
2018-11-02T06:21:57.111Z,100.00
2018-11-02T06:24:25.895Z,100.00
2018-11-02T06:26:54.504Z,100.00
2018-11-02T06:29:23.460Z,100.00
2018-11-02T06:31:52.216Z,100.00
2018-11-02T06:34:21.145Z,100.00
2018-11-02T06:36:49.955Z,100.00
2018-11-02T06:39:19.613Z,99.97
2018-11-02T06:41:48.809Z,100.00
2018-11-02T06:44:18.303Z,100.00
2018-11-02T06:46:48.701Z,100.00
2018-11-02T06:49:17.569Z,100.00
2018-11-02T06:51:46.360Z,100.00
2018-11-02T06:54:15.916Z,100.00
2018-11-02T06:56:44.536Z,100.00
2018-11-02T06:59:13.481Z,100.00
2018-11-02T07:01:42.908Z,100.00
2018-11-02T07:04:12.087Z,100.00
2018-11-02T07:06:41.095Z,100.00
2018-11-02T07:09:11.520Z,100.00
2018-11-02T07:11:41.021Z,100.00
2018-11-02T07:14:10.093Z,99.54
2018-11-02T07:16:40.051Z,99.26
2018-11-02T07:19:10.132Z,98.95
2018-11-02T07:21:39.791Z,98.61
2018-11-02T07:24:08.747Z,97.51
2018-11-02T07:26:38.109Z,96.86
2018-11-02T07:29:07.680Z,96.78
2018-11-02T07:31:36.686Z,96.62
2018-11-02T07:34:06.004Z,96.11
2018-11-02T07:36:36.342Z,96.26
2018-11-02T07:39:21.371Z,95.96
2018-11-02T07:41:51.301Z,95.18
2018-11-02T07:44:21.095Z,95.20
2018-11-02T07:46:50.101Z,94.36
2018-11-02T07:49:19.507Z,93.45
2018-11-02T07:51:49.226Z,93.08
2018-11-02T07:54:18.447Z,92.66
2018-11-02T07:56:47.795Z,92.41
2018-11-02T07:59:17.136Z,92.00
2018-11-02T08:01:46.468Z,92.05
2018-11-02T08:04:15.570Z,91.90
2018-11-02T08:06:44.475Z,91.07
2018-11-02T08:09:14.324Z,90.55
2018-11-02T08:11:43.555Z,89.96
2018-11-02T08:14:13.412Z,89.67
2018-11-02T08:16:42.300Z,89.49
2018-11-02T08:19:12.000Z,88.64
2018-11-02T08:21:40.824Z,88.94
2018-11-02T08:24:09.445Z,89.22
2018-11-02T08:26:38.198Z,89.32
2018-11-02T08:29:06.847Z,88.37
2018-11-02T08:31:36.286Z,86.78
2018-11-02T08:34:05.280Z,84.52
2018-11-02T08:36:34.532Z,82.23
2018-11-02T08:39:03.659Z,81.24
2018-11-02T08:41:33.007Z,80.93
2018-11-02T08:44:02.252Z,80.77
2018-11-02T08:46:32.444Z,81.49
2018-11-02T08:49:01.657Z,81.77
2018-11-02T08:51:30.875Z,81.61
2018-11-02T08:53:59.546Z,81.88
2018-11-02T08:56:28.277Z,82.29
2018-11-02T08:58:57.167Z,83.23
2018-11-02T09:01:26.683Z,84.08
2018-11-02T09:03:55.952Z,84.54
2018-11-02T09:06:25.156Z,85.36
2018-11-02T09:08:54.469Z,85.19
2018-11-02T09:11:23.756Z,85.43
2018-11-02T09:13:52.446Z,85.24
2018-11-02T09:16:21.277Z,84.48
2018-11-02T09:18:50.134Z,84.57
2018-11-02T09:21:18.841Z,84.55
2018-11-02T09:23:47.833Z,84.24
2018-11-02T09:26:17.056Z,83.74
2018-11-02T09:28:45.880Z,82.92
2018-11-02T09:31:14.613Z,82.12
2018-11-02T09:33:43.823Z,81.82
2018-11-02T09:36:12.568Z,80.95
2018-11-02T09:38:42.041Z,79.44
2018-11-02T09:41:11.476Z,78.09
2018-11-02T09:43:40.616Z,77.63
2018-11-02T09:46:10.261Z,77.33
2018-11-02T09:48:39.113Z,76.82
2018-11-02T09:51:08.191Z,76.05
2018-11-02T09:53:39.300Z,75.64
2018-11-02T09:56:09.015Z,75.93
2018-11-02T09:58:37.885Z,76.26
2018-11-02T10:01:07.095Z,76.88
2018-11-02T10:03:35.952Z,77.66
2018-11-02T10:06:06.463Z,77.38
2018-11-02T10:08:35.688Z,77.58
2018-11-02T10:11:05.212Z,78.07
2018-11-02T10:13:34.103Z,78.10
2018-11-02T10:16:03.068Z,78.10
2018-11-02T10:18:31.697Z,77.07
2018-11-02T10:21:00.983Z,76.81
2018-11-02T10:23:30.089Z,75.56
2018-11-02T10:25:58.895Z,75.66
2018-11-02T10:28:27.766Z,75.30
2018-11-02T10:30:56.857Z,72.48
2018-11-02T10:33:26.018Z,71.11
2018-11-02T10:35:56.243Z,69.85
2018-11-02T10:38:25.404Z,67.77
2018-11-02T10:40:56.349Z,64.49
2018-11-02T10:43:27.123Z,62.13
2018-11-02T10:45:58.948Z,59.63
2018-11-02T10:48:29.071Z,58.30
2018-11-02T10:50:58.711Z,57.71
2018-11-02T10:53:27.774Z,58.56
2018-11-02T10:55:57.229Z,57.20
2018-11-02T10:58:26.617Z,55.43
2018-11-02T11:01:02.474Z,56.81
2018-11-02T11:03:31.603Z,56.11
2018-11-02T11:06:00.576Z,55.19
2018-11-02T11:08:29.948Z,53.58
2018-11-02T11:10:59.218Z,51.80
2018-11-02T11:13:28.703Z,50.74
2018-11-02T11:15:58.742Z,49.03
2018-11-02T11:18:27.788Z,50.69
2018-11-02T11:20:56.868Z,51.42
2018-11-02T11:23:26.221Z,52.06
2018-11-02T11:25:57.382Z,53.08
2018-11-02T11:28:26.618Z,52.70
2018-11-02T11:30:55.854Z,55.32
2018-11-02T11:33:24.974Z,57.59
2018-11-02T11:35:54.258Z,59.03
2018-11-02T11:38:24.916Z,60.34
2018-11-02T11:40:54.070Z,60.01
2018-11-02T11:43:24.481Z,59.69
2018-11-02T11:45:53.593Z,57.29
2018-11-02T11:48:23.723Z,56.80
2018-11-02T11:50:53.773Z,56.29
2018-11-02T11:53:22.798Z,57.15
2018-11-02T11:55:51.907Z,56.93
2018-11-02T11:58:21.229Z,57.63
2018-11-02T12:00:50.321Z,58.22
2018-11-02T12:03:19.767Z,58.26
2018-11-02T12:05:48.806Z,59.34
2018-11-02T12:08:18.207Z,61.00
2018-11-02T12:10:47.790Z,60.51
2018-11-02T12:13:17.611Z,61.19
2018-11-02T12:15:46.780Z,62.04
2018-11-02T12:18:15.966Z,62.66
2018-11-02T12:20:45.236Z,63.07
2018-11-02T12:23:14.201Z,63.10
2018-11-02T12:25:43.051Z,63.54
2018-11-02T12:28:11.833Z,64.16
2018-11-02T12:30:41.552Z,64.03
2018-11-02T12:33:10.182Z,64.71
2018-11-02T12:35:39.319Z,64.24
2018-11-02T12:38:08.404Z,64.40
2018-11-02T12:40:37.915Z,64.50
2018-11-02T12:43:07.111Z,64.85
2018-11-02T12:45:36.236Z,64.51
2018-11-02T12:48:05.568Z,64.84
2018-11-02T12:50:34.954Z,64.50
2018-11-02T12:53:03.991Z,64.97
2018-11-02T12:55:33.468Z,64.41
2018-11-02T12:58:02.332Z,65.02
2018-11-02T13:00:31.837Z,64.37
2018-11-02T13:03:00.751Z,63.56
2018-11-02T13:05:29.917Z,63.85
2018-11-02T13:07:59.239Z,63.25
2018-11-02T13:10:28.607Z,63.30
2018-11-02T13:12:57.718Z,63.58
2018-11-02T13:15:26.551Z,62.40
2018-11-02T13:17:56.274Z,61.48
2018-11-02T13:20:25.153Z,61.77
2018-11-02T13:22:53.740Z,62.72
2018-11-02T13:25:23.081Z,63.19
2018-11-02T13:27:52.400Z,63.55
2018-11-02T13:30:21.453Z,64.01
2018-11-02T13:32:50.452Z,63.27
2018-11-02T13:35:20.133Z,63.40
2018-11-02T13:37:49.873Z,63.20
2018-11-02T13:40:19.057Z,63.68
2018-11-02T13:42:48.391Z,63.47
2018-11-02T13:45:18.553Z,63.43
2018-11-02T13:47:47.833Z,64.15
2018-11-02T13:50:17.973Z,64.06
2018-11-02T13:52:48.155Z,64.58
2018-11-02T13:55:17.339Z,63.30
2018-11-02T13:57:46.522Z,63.55
2018-11-02T14:00:17.045Z,63.73
2018-11-02T14:02:46.049Z,63.38
2018-11-02T14:05:16.285Z,63.46
2018-11-02T14:07:45.063Z,63.34
2018-11-02T14:10:14.307Z,63.59
2018-11-02T14:12:43.893Z,63.56
2018-11-02T14:15:14.253Z,64.43
2018-11-02T14:17:43.649Z,64.20
2018-11-02T14:20:13.447Z,64.78
2018-11-02T14:22:42.253Z,65.54
2018-11-02T14:25:13.283Z,65.67
2018-11-02T14:27:42.206Z,66.16
2018-11-02T14:30:13.313Z,67.14
2018-11-02T14:32:42.763Z,66.82
2018-11-02T14:35:12.350Z,67.81
2018-11-02T14:37:41.963Z,68.20
2018-11-02T14:40:12.472Z,68.92
2018-11-02T14:42:43.383Z,68.90
2018-11-02T14:45:14.582Z,69.57
2018-11-02T14:47:44.356Z,69.94
2018-11-02T14:50:14.280Z,70.61
2018-11-02T14:52:43.153Z,70.43
2018-11-02T14:55:12.359Z,70.70
2018-11-02T14:57:41.166Z,70.90
2018-11-02T15:00:11.744Z,71.29
2018-11-02T15:02:42.038Z,71.71
2018-11-02T15:05:13.459Z,72.11
2018-11-02T15:07:43.302Z,72.55
2018-11-02T15:10:12.177Z,73.07
2018-11-02T15:12:41.007Z,74.13
2018-11-02T15:15:10.459Z,74.40
2018-11-02T15:17:39.688Z,75.28
2018-11-02T15:20:10.906Z,75.48
2018-11-02T15:22:39.719Z,76.38
2018-11-02T15:25:09.208Z,77.06
2018-11-02T15:27:38.219Z,78.16
2018-11-02T15:30:10.539Z,78.11
2018-11-02T15:32:39.595Z,77.92
2018-11-02T15:35:08.974Z,78.63
2018-11-02T15:37:37.910Z,78.64
2018-11-02T15:40:07.507Z,79.11
2018-11-02T15:42:36.479Z,79.06
2018-11-02T15:45:06.749Z,78.95
2018-11-02T15:47:35.589Z,79.08
2018-11-02T15:50:05.268Z,80.11
2018-11-02T15:52:34.209Z,80.98
2018-11-02T15:55:04.294Z,80.58
2018-11-02T15:57:33.777Z,81.81
2018-11-02T16:00:02.931Z,82.26
2018-11-02T16:02:31.987Z,83.17
2018-11-02T16:05:01.179Z,82.84
2018-11-02T16:07:30.508Z,83.16
2018-11-02T16:09:59.834Z,83.72
2018-11-02T16:12:28.973Z,84.13
2018-11-02T16:14:58.298Z,84.11
2018-11-02T16:17:27.175Z,83.83
2018-11-02T16:19:56.064Z,83.81
2018-11-02T16:22:24.930Z,83.97
2018-11-02T16:24:54.494Z,84.22
2018-11-02T16:27:23.354Z,84.08
2018-11-02T16:29:52.293Z,84.32
2018-11-02T16:32:21.989Z,84.40
2018-11-02T16:34:50.965Z,84.31
2018-11-02T16:37:20.249Z,84.38
2018-11-02T16:39:49.559Z,84.49
2018-11-02T16:42:18.955Z,84.51
2018-11-02T16:44:47.999Z,84.54
2018-11-02T16:47:17.164Z,84.83
2018-11-02T16:49:46.054Z,85.59
2018-11-02T16:52:15.508Z,86.91
2018-11-02T16:54:44.530Z,86.85
2018-11-02T16:57:14.025Z,86.52
2018-11-02T16:59:43.000Z,86.66
2018-11-02T17:02:11.731Z,86.76
2018-11-02T17:04:40.496Z,86.77
2018-11-02T17:07:09.225Z,86.99
2018-11-02T17:09:38.151Z,87.14
2018-11-02T17:12:07.259Z,87.24
2018-11-02T17:14:36.435Z,87.15
2018-11-02T17:17:05.650Z,86.82
2018-11-02T17:19:34.420Z,87.20
2018-11-02T17:22:03.386Z,87.86
2018-11-02T17:24:32.705Z,88.01
2018-11-02T17:27:01.780Z,88.31
2018-11-02T17:29:31.020Z,88.38
2018-11-02T17:32:00.166Z,88.47
2018-11-02T17:34:29.034Z,88.75
2018-11-02T17:36:59.671Z,88.66
2018-11-02T17:39:28.833Z,88.86
2018-11-02T17:41:58.057Z,89.57
2018-11-02T17:44:27.269Z,89.86
2018-11-02T17:46:56.407Z,90.08
2018-11-02T17:49:25.454Z,90.21
2018-11-02T17:51:54.154Z,89.94
2018-11-02T17:54:23.186Z,90.34
2018-11-02T17:56:52.698Z,90.27
2018-11-02T17:59:21.695Z,90.56
2018-11-02T18:01:50.869Z,90.52
2018-11-02T18:04:20.153Z,90.89
2018-11-02T18:06:49.195Z,90.78
2018-11-02T18:09:18.728Z,91.00
2018-11-02T18:11:48.129Z,90.87
2018-11-02T18:14:17.101Z,90.69
2018-11-02T18:16:46.220Z,90.94
2018-11-02T18:19:16.040Z,90.68
2018-11-02T18:21:45.107Z,90.89
2018-11-02T18:24:14.874Z,90.77
2018-11-02T18:26:44.069Z,90.99
2018-11-02T18:29:13.387Z,91.12
2018-11-02T18:31:42.319Z,91.24
2018-11-02T18:34:11.319Z,91.38
2018-11-02T18:36:40.144Z,92.17
2018-11-02T18:39:14.430Z,92.12
2018-11-02T18:41:44.178Z,92.41
2018-11-02T18:44:13.410Z,92.63
2018-11-02T18:46:42.863Z,92.47
2018-11-02T18:49:13.665Z,92.51
2018-11-02T18:51:43.410Z,92.59
2018-11-02T18:54:12.512Z,92.17
2018-11-02T18:56:41.482Z,92.56
2018-11-02T18:59:11.058Z,93.01
2018-11-02T19:01:40.095Z,92.75
2018-11-02T19:04:09.287Z,93.07
2018-11-02T19:06:38.096Z,93.35
2018-11-02T19:09:08.971Z,93.57
2018-11-02T19:11:38.479Z,93.80
2018-11-02T19:14:08.075Z,94.10
2018-11-02T19:16:38.070Z,94.02
2018-11-02T19:19:07.416Z,94.06
2018-11-02T19:21:36.720Z,94.05
2018-11-02T19:24:06.171Z,94.35
2018-11-02T19:26:34.854Z,94.20
2018-11-02T19:29:03.947Z,94.14
2018-11-02T19:31:35.020Z,94.16
2018-11-02T19:34:04.811Z,94.61
2018-11-02T19:36:33.922Z,94.36
2018-11-02T19:39:03.810Z,94.26
2018-11-02T19:41:33.456Z,94.59
2018-11-02T19:44:02.729Z,94.46
2018-11-02T19:46:31.844Z,94.12
2018-11-02T19:49:01.377Z,94.19
2018-11-02T19:51:30.421Z,94.45
2018-11-02T19:53:59.732Z,94.33
2018-11-02T19:56:28.603Z,94.66
2018-11-02T19:58:57.995Z,95.04
2018-11-02T20:01:27.236Z,95.27
2018-11-02T20:03:56.510Z,95.11
2018-11-02T20:06:25.921Z,94.83
2018-11-02T20:08:54.720Z,95.02
2018-11-02T20:11:24.160Z,95.12
2018-11-02T20:13:53.359Z,95.34
2018-11-02T20:16:22.705Z,95.20
2018-11-02T20:18:52.455Z,95.28
2018-11-02T20:21:21.956Z,95.35
2018-11-02T20:23:51.460Z,95.68
2018-11-02T20:26:20.430Z,95.89
2018-11-02T20:28:49.750Z,95.67
2018-11-02T20:31:20.085Z,95.71
2018-11-02T20:33:49.371Z,95.56
2018-11-02T20:36:18.495Z,95.58
2018-11-02T20:38:48.404Z,95.86
2018-11-02T20:41:17.969Z,96.16
2018-11-02T20:43:47.025Z,96.05
2018-11-02T20:46:16.456Z,96.33
2018-11-02T20:48:46.567Z,96.39
2018-11-02T20:51:15.839Z,96.98
2018-11-02T20:53:45.318Z,96.64
2018-11-02T20:56:15.582Z,96.67
2018-11-02T20:58:45.522Z,96.57
2018-11-02T21:01:14.440Z,96.82
2018-11-02T21:03:43.772Z,96.68
2018-11-02T21:06:13.002Z,96.75
2018-11-02T21:08:43.346Z,96.50
2018-11-02T21:11:12.685Z,96.50
2018-11-02T21:13:42.091Z,96.73
2018-11-02T21:16:12.993Z,96.87
2018-11-02T21:18:42.184Z,96.82
2018-11-02T21:21:11.322Z,97.33
2018-11-02T21:23:40.667Z,96.89
2018-11-02T21:26:09.985Z,96.75
2018-11-02T21:28:39.324Z,96.74
2018-11-02T21:31:08.595Z,97.20
2018-11-02T21:33:38.413Z,97.00
2018-11-02T21:36:07.433Z,97.01
2018-11-02T21:38:37.603Z,97.21
2018-11-02T21:41:06.890Z,96.96
2018-11-02T21:43:36.880Z,97.42
2018-11-02T21:46:06.409Z,97.35
2018-11-02T21:48:35.557Z,97.31
2018-11-02T21:51:05.151Z,97.26
2018-11-02T21:53:33.890Z,97.33
2018-11-02T21:56:03.118Z,97.47
2018-11-02T21:58:32.859Z,97.24
2018-11-02T22:01:01.785Z,97.41
2018-11-02T22:03:30.831Z,97.44
2018-11-02T22:06:01.050Z,97.17
2018-11-02T22:08:30.356Z,97.14
2018-11-02T22:10:59.376Z,96.99
2018-11-02T22:13:28.598Z,97.12
2018-11-02T22:15:57.889Z,97.07
2018-11-02T22:18:27.054Z,96.91
2018-11-02T22:20:56.214Z,96.99
2018-11-02T22:23:25.139Z,97.07
2018-11-02T22:25:54.672Z,97.08
2018-11-02T22:28:24.084Z,96.87
2018-11-02T22:30:53.322Z,97.08
2018-11-02T22:33:22.396Z,96.72
2018-11-02T22:35:51.614Z,96.91
2018-11-02T22:38:21.307Z,96.93
2018-11-02T22:40:50.217Z,96.73
2018-11-02T22:43:19.163Z,96.52
2018-11-02T22:45:48.674Z,96.52
2018-11-02T22:48:23.729Z,96.83
2018-11-02T22:50:53.181Z,97.00
2018-11-02T22:53:22.161Z,97.41
2018-11-02T22:55:51.316Z,97.31
2018-11-02T22:58:20.586Z,97.07
2018-11-02T23:00:54.685Z,97.03
2018-11-02T23:03:23.966Z,97.03
2018-11-02T23:05:54.036Z,97.23
2018-11-02T23:08:23.344Z,97.21
2018-11-02T23:10:52.100Z,97.36
2018-11-02T23:13:20.666Z,97.55
2018-11-02T23:15:49.551Z,97.27
2018-11-02T23:18:18.260Z,97.49
2018-11-02T23:20:47.302Z,97.38
2018-11-02T23:23:16.286Z,97.40
2018-11-02T23:25:45.742Z,97.36
2018-11-02T23:28:15.117Z,97.58
2018-11-02T23:30:44.226Z,97.66
2018-11-02T23:33:13.787Z,97.92
2018-11-02T23:35:42.541Z,98.01
2018-11-02T23:38:11.885Z,98.46
2018-11-02T23:40:41.188Z,98.41
2018-11-02T23:43:10.305Z,98.30
2018-11-02T23:45:39.743Z,98.48
2018-11-02T23:48:13.800Z,98.51
2018-11-02T23:50:42.890Z,98.58
2018-11-02T23:53:11.762Z,98.68
2018-11-02T23:55:40.432Z,98.57
2018-11-02T23:58:09.433Z,98.43
